createdAt,value
2023-02-23T00:01:52.682Z,100627.63
2023-02-23T00:04:19.196Z,100621.56
2023-02-23T00:06:45.819Z,100622.66
2023-02-23T00:09:23.178Z,100619.13
2023-02-23T00:11:57.330Z,100624.56
2023-02-23T00:14:28.741Z,100616.25
2023-02-23T00:16:56.576Z,100622.09
2023-02-23T00:19:24.801Z,100621.28
2023-02-23T00:21:52.241Z,100611.72
2023-02-23T00:24:19.810Z,100618.78
2023-02-23T00:26:47.874Z,100620.81
2023-02-23T00:29:17.250Z,100614.31
2023-02-23T00:31:44.887Z,100610.56
2023-02-23T00:34:13.016Z,100614.41
2023-02-23T00:36:39.854Z,100611.13
2023-02-23T00:39:24.857Z,100607.41
2023-02-23T00:41:55.227Z,100601.81
2023-02-23T00:44:23.537Z,100601.16
2023-02-23T00:46:51.780Z,100605.34
2023-02-23T00:49:20.433Z,100585.69
2023-02-23T00:51:47.995Z,100608.69
2023-02-23T00:54:16.207Z,100603.38
2023-02-23T00:56:42.992Z,100607.03
2023-02-23T00:59:10.197Z,100609.44
2023-02-23T01:01:38.409Z,100610.13
2023-02-23T01:04:05.291Z,100604.53
2023-02-23T01:06:32.320Z,100610.13
2023-02-23T01:08:58.909Z,100605.34
2023-02-23T01:11:30.901Z,100608.22
2023-02-23T01:13:59.369Z,100599.84
2023-02-23T01:16:29.426Z,100602.81
2023-02-23T01:18:58.120Z,100603.66
2023-02-23T01:21:25.848Z,100559.81
2023-02-23T01:23:53.323Z,100599.31
2023-02-23T01:26:26.081Z,100604.72
2023-02-23T01:28:56.893Z,100598.47
2023-02-23T01:31:25.492Z,100606.50
2023-02-23T01:33:57.003Z,100602.84
2023-02-23T01:36:25.422Z,100605.53
2023-02-23T01:38:56.315Z,100600.72
2023-02-23T01:41:23.964Z,100603.44
2023-02-23T01:44:13.308Z,100598.28
2023-02-23T01:46:40.704Z,100600.13
2023-02-23T01:49:15.295Z,100596.44
2023-02-23T01:51:58.693Z,100596.88
2023-02-23T01:54:31.001Z,100598.38
2023-02-23T01:57:01.758Z,100592.97
2023-02-23T01:59:34.631Z,100588.94
2023-02-23T02:02:04.933Z,100591.09
2023-02-23T02:04:43.994Z,100599.81
2023-02-23T02:12:26.429Z,100588.22
2023-02-23T02:15:19.920Z,100594.47
2023-02-23T02:18:38.052Z,100586.47
2023-02-23T02:21:23.388Z,100591.78
2023-02-23T02:24:02.282Z,100594.09
2023-02-23T02:27:19.137Z,100590.91
2023-02-23T02:30:32.081Z,100583.09
2023-02-23T02:33:40.354Z,100532.16
2023-02-23T02:36:25.107Z,100585.13
2023-02-23T02:38:56.205Z,100582.00
2023-02-23T02:41:37.033Z,100578.19
2023-02-23T02:44:18.205Z,100577.97
2023-02-23T02:46:49.664Z,100575.25
2023-02-23T02:49:28.971Z,100569.97
2023-02-23T02:52:05.430Z,100573.34
2023-02-23T02:54:39.321Z,100572.00
2023-02-23T02:57:06.942Z,100563.63
2023-02-23T03:00:02.520Z,100568.50
2023-02-23T03:02:50.190Z,100563.47
2023-02-23T03:05:38.453Z,100556.22
2023-02-23T03:08:47.092Z,100564.31
2023-02-23T03:11:34.401Z,100561.69
2023-02-23T03:14:50.484Z,100567.19
2023-02-23T03:18:05.162Z,100567.00
2023-02-23T03:20:53.149Z,100571.31
2023-02-23T03:23:39.629Z,100569.97
2023-02-23T03:26:40.134Z,100571.56
2023-02-23T03:29:37.654Z,100567.38
2023-02-23T03:32:32.428Z,100574.63
2023-02-23T03:35:27.729Z,100573.44
2023-02-23T03:38:24.071Z,100574.81
2023-02-23T03:41:10.252Z,100576.72
2023-02-23T03:44:03.581Z,100575.13
2023-02-23T03:46:50.305Z,100575.75
2023-02-23T03:49:39.032Z,100578.75
2023-02-23T03:52:36.761Z,100585.44
2023-02-23T03:55:28.425Z,100583.28
2023-02-23T03:58:20.343Z,100571.94
2023-02-23T04:01:08.797Z,100587.88
2023-02-23T04:03:58.093Z,100585.53
2023-02-23T04:06:45.278Z,100586.47
2023-02-23T04:09:31.044Z,100594.22
2023-02-23T04:12:39.244Z,100589.38
2023-02-23T04:15:20.201Z,100599.97
2023-02-23T04:17:48.237Z,100590.41
2023-02-23T04:20:14.951Z,100596.63
2023-02-23T04:22:41.484Z,100592.97
2023-02-23T04:25:08.923Z,100594.19
2023-02-23T04:27:36.323Z,100595.22
2023-02-23T04:30:03.695Z,100591.00
2023-02-23T04:32:30.845Z,100591.78
2023-02-23T04:34:57.418Z,100601.81
2023-02-23T04:37:23.900Z,100602.19
2023-02-23T04:39:50.448Z,100603.22
2023-02-23T04:42:17.630Z,100594.19
2023-02-23T04:44:44.550Z,100598.00
2023-02-23T04:47:11.806Z,100606.66
2023-02-23T04:49:38.482Z,100601.25
2023-02-23T04:52:05.275Z,100601.25
2023-02-23T04:54:31.789Z,100602.94
2023-02-23T04:56:58.428Z,100602.28
2023-02-23T04:59:24.967Z,100611.06
2023-02-23T05:01:51.635Z,100610.19
2023-02-23T05:04:18.082Z,100604.78
2023-02-23T05:06:44.547Z,100612.03
2023-02-23T05:09:11.015Z,100616.63
2023-02-23T05:11:38.094Z,100614.13
2023-02-23T05:14:04.803Z,100621.19
2023-02-23T05:16:31.364Z,100624.56
2023-02-23T05:18:58.229Z,100623.22
2023-02-23T05:21:24.957Z,100627.63
2023-02-23T05:23:51.501Z,100633.38
2023-02-23T05:26:18.748Z,100624.44
2023-02-23T05:28:45.384Z,100628.34
2023-02-23T05:31:12.279Z,100632.53
2023-02-23T05:33:45.643Z,100633.00
2023-02-23T05:36:15.176Z,100630.31
2023-02-23T05:38:41.613Z,100633.84
2023-02-23T05:41:10.225Z,100634.00
2023-02-23T05:43:36.864Z,100638.41
2023-02-23T05:46:30.072Z,100635.72
2023-02-23T05:48:59.724Z,100631.31
2023-02-23T05:51:27.612Z,100638.59
2023-02-23T05:53:54.370Z,100639.41
2023-02-23T05:56:21.344Z,100633.66
2023-02-23T05:58:56.268Z,100640.25
2023-02-23T06:01:22.983Z,100642.28
2023-02-23T06:03:49.665Z,100638.09
2023-02-23T06:06:17.500Z,100636.44
2023-02-23T06:08:44.454Z,100642.88
2023-02-23T06:11:11.592Z,100641.22
2023-02-23T06:13:38.125Z,100641.59
2023-02-23T06:16:05.142Z,100642.28
2023-02-23T06:18:31.735Z,100647.75
2023-02-23T06:21:03.833Z,100648.88
2023-02-23T06:23:31.550Z,100652.06
2023-02-23T06:25:59.719Z,100658.00
2023-02-23T06:28:27.266Z,100656.34
2023-02-23T06:30:54.874Z,100651.94
2023-02-23T06:33:22.630Z,100648.25
2023-02-23T06:35:49.359Z,100653.72
2023-02-23T06:38:16.134Z,100650.91
2023-02-23T06:40:43.196Z,100657.53
2023-02-23T06:43:09.850Z,100659.22
2023-02-23T06:45:36.552Z,100662.56
2023-02-23T06:48:03.076Z,100667.50
2023-02-23T06:50:29.589Z,100672.41
2023-02-23T06:52:57.517Z,100669.06
2023-02-23T06:55:24.308Z,100675.41
2023-02-23T06:57:51.831Z,100677.63
2023-02-23T07:00:18.819Z,100686.56
2023-02-23T07:02:45.767Z,100684.38
2023-02-23T07:05:12.323Z,100696.84
2023-02-23T07:07:38.852Z,100692.91
2023-02-23T07:10:06.718Z,100697.00
2023-02-23T07:12:33.323Z,100706.78
2023-02-23T07:14:59.802Z,100715.94
2023-02-23T07:17:26.277Z,100707.63
2023-02-23T07:19:52.769Z,100712.84
2023-02-23T07:22:19.372Z,100710.78
2023-02-23T07:24:46.259Z,100719.56
2023-02-23T07:27:12.765Z,100718.63
2023-02-23T07:29:39.248Z,100716.19
2023-02-23T07:32:06.103Z,100722.47
2023-02-23T07:34:32.932Z,100722.94
2023-02-23T07:36:59.489Z,100733.06
2023-02-23T07:39:26.019Z,100729.53
2023-02-23T07:41:52.510Z,100731.69
2023-02-23T07:44:19.456Z,100727.69
2023-02-23T07:46:46.428Z,100737.44
2023-02-23T07:49:13.040Z,100732.91
2023-02-23T07:51:40.068Z,100727.00
2023-02-23T07:54:06.776Z,100724.03
2023-02-23T07:56:33.567Z,100732.41
2023-02-23T07:59:00.113Z,100732.91
2023-02-23T08:01:26.634Z,100743.34
2023-02-23T08:03:53.245Z,100737.09
2023-02-23T08:06:20.213Z,100739.59
2023-02-23T08:08:47.254Z,100743.81
2023-02-23T08:11:13.834Z,100748.38
2023-02-23T08:13:40.290Z,100753.44
2023-02-23T08:16:07.272Z,100754.25
2023-02-23T08:18:33.806Z,100760.50
2023-02-23T08:21:01.683Z,100758.47
2023-02-23T08:23:33.402Z,100763.47
2023-02-23T08:26:01.296Z,100757.25
2023-02-23T08:28:28.802Z,100763.28
2023-02-23T08:30:55.420Z,100756.53
2023-02-23T08:33:22.564Z,100752.66
2023-02-23T08:35:49.097Z,100772.56
2023-02-23T08:38:16.398Z,100762.22
2023-02-23T08:40:43.274Z,100765.59
2023-02-23T08:43:09.916Z,100760.44
2023-02-23T08:45:38.658Z,100769.22
2023-02-23T08:48:06.722Z,100769.09
2023-02-23T08:50:33.184Z,100776.41
2023-02-23T08:52:59.643Z,100780.94
2023-02-23T08:55:26.530Z,100771.41
2023-02-23T08:57:53.037Z,100784.00
2023-02-23T09:00:20.069Z,100779.91
2023-02-23T09:02:49.587Z,100770.69
2023-02-23T09:05:16.124Z,100781.13
2023-02-23T09:07:45.027Z,100779.09
2023-02-23T09:10:17.038Z,100787.47
2023-02-23T09:12:43.568Z,100790.19
2023-02-23T09:15:10.442Z,100793.38
2023-02-23T09:17:37.709Z,100777.16
2023-02-23T09:20:05.621Z,100792.66
2023-02-23T09:22:32.471Z,100791.06
2023-02-23T09:24:58.925Z,100791.78
2023-02-23T09:27:25.471Z,100796.13
2023-02-23T09:29:51.953Z,100796.47
2023-02-23T09:32:18.577Z,100800.56
2023-02-23T09:34:45.108Z,100800.28
2023-02-23T09:37:11.587Z,100806.97
2023-02-23T09:39:39.182Z,100782.44
2023-02-23T09:42:14.989Z,100811.00
2023-02-23T09:44:54.904Z,100800.50
2023-02-23T09:47:33.612Z,100818.19
2023-02-23T09:50:05.997Z,100817.66
2023-02-23T09:52:40.928Z,100814.84
2023-02-23T09:55:11.323Z,100820.44
2023-02-23T09:57:40.238Z,100812.56
2023-02-23T10:00:17.956Z,100827.03
2023-02-23T10:03:16.880Z,100829.56
2023-02-23T10:05:54.585Z,100825.84
2023-02-23T10:08:51.854Z,100833.19
2023-02-23T10:11:26.002Z,100827.53
2023-02-23T10:14:07.321Z,100823.38
2023-02-23T10:16:45.480Z,100832.09
2023-02-23T10:19:29.267Z,100837.16
2023-02-23T10:22:06.489Z,100843.41
2023-02-23T10:24:56.785Z,100840.44
2023-02-23T10:27:30.421Z,100839.31
2023-02-23T10:30:00.598Z,100839.97
2023-02-23T10:32:40.923Z,100840.53
2023-02-23T10:35:13.457Z,100836.78
2023-02-23T10:37:40.097Z,100839.69
2023-02-23T10:40:08.166Z,100838.09
2023-02-23T10:42:34.748Z,100845.13
2023-02-23T10:45:01.252Z,100841.75
2023-02-23T10:47:32.436Z,100849.66
2023-02-23T10:49:59.261Z,100848.91
2023-02-23T10:52:42.928Z,100846.03
2023-02-23T10:55:30.936Z,100852.53
2023-02-23T10:58:20.805Z,100855.00
2023-02-23T11:00:56.473Z,100857.97
2023-02-23T11:03:44.311Z,100856.78
2023-02-23T11:06:34.063Z,100863.16
2023-02-23T11:09:45.014Z,100849.66
2023-02-23T11:12:28.508Z,100856.75
2023-02-23T11:14:58.940Z,100861.50
2023-02-23T11:17:38.721Z,100864.19
2023-02-23T11:20:18.691Z,100858.50
2023-02-23T11:22:45.859Z,100858.22
2023-02-23T11:25:17.689Z,100856.91
2023-02-23T11:27:51.741Z,100858.13
2023-02-23T11:30:24.436Z,100855.94
2023-02-23T11:33:02.457Z,100855.94
2023-02-23T11:35:30.869Z,100854.47
2023-02-23T11:37:57.638Z,100849.34
2023-02-23T11:40:28.568Z,100850.41
2023-02-23T11:43:09.809Z,100844.19
2023-02-23T11:45:51.981Z,100854.41
2023-02-23T11:48:32.969Z,100845.19
2023-02-23T11:51:00.519Z,100840.78
2023-02-23T11:53:34.951Z,100843.31
2023-02-23T11:56:07.823Z,100839.69
2023-02-23T11:58:39.333Z,100840.00
2023-02-23T12:01:12.179Z,100839.63
2023-02-23T12:03:44.739Z,100839.56
2023-02-23T12:06:11.456Z,100841.72
2023-02-23T12:08:46.422Z,100835.16
2023-02-23T12:11:24.640Z,100835.69
2023-02-23T12:14:00.826Z,100833.63
2023-02-23T12:16:33.331Z,100839.03
2023-02-23T12:19:06.619Z,100836.44
2023-02-23T12:21:41.887Z,100837.66
2023-02-23T12:24:08.438Z,100842.97
2023-02-23T12:27:06.267Z,100836.50
2023-02-23T12:29:58.773Z,100841.53
2023-02-23T12:32:34.799Z,100840.34
2023-02-23T12:35:23.052Z,100834.94
2023-02-23T12:38:00.327Z,100842.66
2023-02-23T12:40:30.251Z,100833.16
2023-02-23T12:43:15.912Z,100842.25
2023-02-23T12:45:52.692Z,100840.75
2023-02-23T12:48:41.671Z,100801.56
2023-02-23T12:51:43.313Z,100839.53
2023-02-23T12:54:12.507Z,100846.78
2023-02-23T12:57:04.290Z,100848.63
2023-02-23T12:59:55.164Z,100848.53
2023-02-23T13:02:34.065Z,100862.06
2023-02-23T13:05:16.274Z,100840.47
2023-02-23T13:08:07.993Z,100843.84
2023-02-23T13:10:51.356Z,100853.94
2023-02-23T13:13:38.260Z,100847.81
2023-02-23T13:16:29.661Z,100846.09
2023-02-23T13:19:11.644Z,100846.47
2023-02-23T13:21:47.514Z,100840.25
2023-02-23T13:24:27.259Z,100845.16
2023-02-23T13:27:02.921Z,100846.09
2023-02-23T13:29:39.126Z,100845.66
2023-02-23T13:32:12.980Z,100836.66
2023-02-23T13:34:44.689Z,100851.16
2023-02-23T13:37:15.142Z,100841.19
2023-02-23T13:40:08.774Z,100849.78
2023-02-23T13:42:45.294Z,100843.00
2023-02-23T13:45:39.004Z,100842.06
2023-02-23T13:48:13.765Z,100839.97
2023-02-23T13:50:56.627Z,100846.34
2023-02-23T13:53:42.288Z,100841.03
2023-02-23T13:56:17.677Z,100860.28
2023-02-23T13:58:51.719Z,100856.31
2023-02-23T14:01:23.548Z,100848.34
2023-02-23T14:03:57.395Z,100854.13
2023-02-23T14:06:27.847Z,100853.25
2023-02-23T14:09:21.335Z,100851.16
2023-02-23T14:11:53.818Z,100854.47
2023-02-23T14:14:32.927Z,100853.56
2023-02-23T14:17:09.806Z,100857.75
2023-02-23T14:19:56.484Z,100848.47
2023-02-23T14:22:23.026Z,100854.78
2023-02-23T14:25:28.819Z,100860.22
2023-02-23T14:28:00.633Z,100856.97
2023-02-23T14:30:29.197Z,100858.19
2023-02-23T14:33:13.128Z,100867.72
2023-02-23T14:35:44.812Z,100850.44
2023-02-23T14:38:24.768Z,100857.56
2023-02-23T14:40:53.775Z,100858.47
2023-02-23T14:43:35.514Z,100864.56
2023-02-23T14:46:05.851Z,100862.81
2023-02-23T14:48:36.475Z,100861.13
2023-02-23T14:51:25.170Z,100863.88
2023-02-23T14:53:53.446Z,100858.47
2023-02-23T14:56:22.650Z,100867.25
2023-02-23T14:58:52.566Z,100867.78
2023-02-23T15:01:32.776Z,100867.75
2023-02-23T15:04:12.580Z,100871.34
2023-02-23T15:06:42.460Z,100876.75
2023-02-23T15:09:19.979Z,100871.34
2023-02-23T15:11:49.941Z,100878.16
2023-02-23T15:14:27.390Z,100876.16
2023-02-23T15:16:56.268Z,100874.69
2023-02-23T15:19:34.401Z,100883.03
2023-02-23T15:22:02.917Z,100869.53
2023-02-23T15:24:41.408Z,100873.25
2023-02-23T15:27:17.378Z,100878.59
2023-02-23T15:29:43.817Z,100878.88
2023-02-23T15:32:16.521Z,100874.34
2023-02-23T15:34:43.166Z,100872.84
2023-02-23T15:37:15.157Z,100877.72
2023-02-23T15:39:53.101Z,100871.81
2023-02-23T15:42:25.290Z,100874.88
2023-02-23T15:45:11.683Z,100882.97
2023-02-23T15:47:38.235Z,100882.06
2023-02-23T15:50:14.270Z,100883.38
2023-02-23T15:52:55.137Z,100881.38
2023-02-23T15:55:28.122Z,100880.97
2023-02-23T15:57:59.063Z,100884.41
2023-02-23T16:00:33.010Z,100885.81
2023-02-23T16:03:02.662Z,100886.63
2023-02-23T16:05:41.818Z,100884.88
2023-02-23T16:08:22.978Z,100890.16
2023-02-23T16:10:57.435Z,100885.41
2023-02-23T16:13:24.195Z,100883.00
2023-02-23T16:15:54.022Z,100892.91
2023-02-23T16:18:27.527Z,100884.97
2023-02-23T16:20:58.908Z,100893.56
2023-02-23T16:23:34.472Z,100889.91
2023-02-23T16:26:30.813Z,100891.94
2023-02-23T16:29:00.272Z,100889.38
2023-02-23T16:31:47.400Z,100889.66
2023-02-23T16:34:21.263Z,100890.53
2023-02-23T16:36:55.470Z,100875.88
2023-02-23T16:39:25.351Z,100883.06
2023-02-23T16:41:52.006Z,100882.72
2023-02-23T16:44:21.682Z,100883.44
2023-02-23T16:47:01.783Z,100884.97
2023-02-23T16:49:32.487Z,100881.97
2023-02-23T16:51:59.835Z,100884.50
2023-02-23T16:54:26.529Z,100884.97
2023-02-23T16:56:55.320Z,100873.38
2023-02-23T16:59:23.902Z,100886.44
2023-02-23T17:01:50.778Z,100885.81
2023-02-23T17:04:19.259Z,100888.88
2023-02-23T17:06:48.301Z,100891.22
2023-02-23T17:09:14.711Z,100886.50
2023-02-23T17:11:41.454Z,100888.03
2023-02-23T17:14:07.910Z,100881.13
2023-02-23T17:16:34.424Z,100886.84
2023-02-23T17:19:01.836Z,100884.50
2023-02-23T17:21:28.383Z,100893.63
2023-02-23T17:24:02.460Z,100899.03
2023-02-23T17:26:29.051Z,100894.94
2023-02-23T17:28:55.566Z,100892.44
2023-02-23T17:31:24.856Z,100898.28
2023-02-23T17:33:53.686Z,100884.34
2023-02-23T17:36:20.256Z,100892.91
2023-02-23T17:38:46.965Z,100872.06
2023-02-23T17:41:16.730Z,100894.59
2023-02-23T17:43:43.543Z,100898.28
2023-02-23T17:46:10.302Z,100897.13
2023-02-23T17:48:36.870Z,100894.44
2023-02-23T17:51:08.901Z,100897.31
2023-02-23T17:53:36.052Z,100898.66
2023-02-23T17:56:02.505Z,100899.66
2023-02-23T17:58:30.089Z,100900.69
2023-02-23T18:00:58.705Z,100909.63
2023-02-23T18:03:31.770Z,100906.72
2023-02-23T18:06:06.540Z,100909.19
2023-02-23T18:08:33.650Z,100915.19
2023-02-23T18:11:00.392Z,100906.38
2023-02-23T18:13:29.069Z,100911.44
2023-02-23T18:15:59.489Z,100912.94
2023-02-23T18:18:26.245Z,100918.16
2023-02-23T18:20:58.007Z,100909.88
2023-02-23T18:23:28.607Z,100912.88
2023-02-23T18:25:55.023Z,100915.03
2023-02-23T18:28:21.507Z,100916.47
2023-02-23T18:30:48.017Z,100916.22
2023-02-23T18:33:14.778Z,100916.41
2023-02-23T18:35:44.973Z,100920.31
2023-02-23T18:38:14.018Z,100925.03
2023-02-23T18:40:41.043Z,100927.25
2023-02-23T18:43:08.692Z,100931.84
2023-02-23T18:45:35.224Z,100922.06
2023-02-23T18:48:01.845Z,100922.94
2023-02-23T18:50:28.398Z,100924.47
2023-02-23T18:52:56.433Z,100919.59
2023-02-23T18:55:23.762Z,100923.97
2023-02-23T18:57:52.544Z,100919.38
2023-02-23T19:00:20.108Z,100922.25
2023-02-23T19:02:52.139Z,100922.94
2023-02-23T19:05:22.377Z,100916.53
2023-02-23T19:07:49.149Z,100913.00
2023-02-23T19:10:16.286Z,100921.09
2023-02-23T19:12:43.444Z,100918.91
2023-02-23T19:15:10.560Z,100911.63
2023-02-23T19:17:37.058Z,100917.53
2023-02-23T19:20:07.924Z,100909.44
2023-02-23T19:22:34.925Z,100904.09
2023-02-23T19:25:02.194Z,100917.53
2023-02-23T19:27:29.698Z,100906.25
2023-02-23T19:29:56.952Z,100907.44
2023-02-23T19:32:23.955Z,100896.81
2023-02-23T19:34:50.908Z,100906.59
2023-02-23T19:37:17.903Z,100911.00
2023-02-23T19:39:46.338Z,100910.66
2023-02-23T19:42:18.088Z,100918.09
2023-02-23T19:44:45.707Z,100911.28
2023-02-23T19:47:12.372Z,100916.03
2023-02-23T19:49:39.040Z,100916.69
2023-02-23T19:52:05.783Z,100921.44
2023-02-23T19:54:34.032Z,100914.16
2023-02-23T19:57:00.951Z,100926.50
2023-02-23T19:59:28.658Z,100922.97
2023-02-23T20:01:55.460Z,100922.97
2023-02-23T20:04:22.630Z,100927.00
2023-02-23T20:06:49.323Z,100932.72
2023-02-23T20:09:16.647Z,100929.88
2023-02-23T20:11:43.430Z,100932.22
2023-02-23T20:14:10.800Z,100932.22
2023-02-23T20:16:37.516Z,100922.63
2023-02-23T20:19:06.417Z,100924.81
2023-02-23T20:21:33.742Z,100929.19
2023-02-23T20:24:01.592Z,100932.25
2023-02-23T20:26:39.267Z,100938.00
2023-02-23T20:29:10.551Z,100932.91
2023-02-23T20:31:41.570Z,100943.06
2023-02-23T20:34:10.940Z,100925.88
2023-02-23T20:36:37.667Z,100923.84
2023-02-23T20:39:04.791Z,100938.00
2023-02-23T20:41:32.000Z,100939.34
2023-02-23T20:44:00.846Z,100941.22
2023-02-23T20:46:30.646Z,100942.53
2023-02-23T20:48:59.151Z,100936.28
2023-02-23T20:51:26.102Z,100932.91
2023-02-23T20:53:52.856Z,100936.97
2023-02-23T20:56:22.025Z,100934.94
2023-02-23T20:58:48.724Z,100925.31
2023-02-23T21:01:20.376Z,100937.84
2023-02-23T21:03:47.438Z,100930.94
2023-02-23T21:06:15.945Z,100938.00
2023-02-23T21:08:42.637Z,100937.84
2023-02-23T21:11:09.368Z,100936.50
2023-02-23T21:13:36.395Z,100935.31
2023-02-23T21:16:03.422Z,100927.53
2023-02-23T21:18:30.942Z,100930.56
2023-02-23T21:21:06.496Z,100919.91
2023-02-23T21:23:33.222Z,100929.53
2023-02-23T21:26:07.069Z,100925.53
2023-02-23T21:28:34.186Z,100917.09
2023-02-23T21:31:01.048Z,100907.34
2023-02-23T21:33:27.959Z,100904.94
2023-02-23T21:35:58.595Z,100913.59
2023-02-23T21:38:26.315Z,100913.41
2023-02-23T21:40:53.096Z,100915.78
2023-02-23T21:43:19.792Z,100911.91
2023-02-23T21:45:46.674Z,100904.84
2023-02-23T21:48:13.813Z,100918.00
2023-02-23T21:50:42.100Z,100922.88
2023-02-23T21:53:09.610Z,100916.31
2023-02-23T21:55:39.998Z,100906.34
2023-02-23T21:58:07.132Z,100919.34
2023-02-23T22:00:35.758Z,100920.69
2023-02-23T22:03:03.096Z,100892.56
2023-02-23T22:05:29.923Z,100917.50
2023-02-23T22:07:56.579Z,100910.59
2023-02-23T22:10:24.075Z,100922.03
2023-02-23T22:12:55.683Z,100917.31
2023-02-23T22:15:27.463Z,100920.19
2023-02-23T22:17:55.585Z,100910.22
2023-02-23T22:20:22.451Z,100908.72
2023-02-23T22:22:50.335Z,100910.22
2023-02-23T22:25:19.662Z,100908.06
2023-02-23T22:27:46.360Z,100905.69
2023-02-23T22:30:14.632Z,100903.00
2023-02-23T22:32:42.551Z,100890.19
2023-02-23T22:35:10.074Z,100888.50
2023-02-23T22:37:36.937Z,100894.25
2023-02-23T22:40:15.253Z,100891.19
2023-02-23T22:42:47.889Z,100889.38
2023-02-23T22:45:15.925Z,100892.38
2023-02-23T22:47:42.677Z,100894.75
2023-02-23T22:50:11.824Z,100884.81
2023-02-23T22:52:38.663Z,100878.06
2023-02-23T22:55:05.603Z,100879.75
2023-02-23T22:57:32.274Z,100881.78
2023-02-23T23:00:10.856Z,100874.69
2023-02-23T23:02:37.846Z,100870.84
2023-02-23T23:05:05.050Z,100869.47
2023-02-23T23:07:32.391Z,100865.63
2023-02-23T23:10:02.271Z,100870.16
2023-02-23T23:12:28.902Z,100874.03
2023-02-23T23:15:00.378Z,100866.28
2023-02-23T23:17:28.934Z,100870.00
2023-02-23T23:19:56.576Z,100872.88
2023-02-23T23:22:25.425Z,100863.75
2023-02-23T23:24:52.600Z,100857.19
2023-02-23T23:27:20.235Z,100858.38
2023-02-23T23:29:48.122Z,100848.09
2023-02-23T23:32:17.235Z,100854.66
2023-02-23T23:34:47.228Z,100855.69
2023-02-23T23:37:15.927Z,100847.59
2023-02-23T23:39:42.699Z,100851.13
2023-02-23T23:42:09.299Z,100846.25
2023-02-23T23:44:36.381Z,100839.66
2023-02-23T23:47:05.716Z,100844.91
2023-02-23T23:49:37.807Z,100848.44
2023-02-23T23:52:05.788Z,100840.34
2023-02-23T23:54:39.074Z,100839.00
2023-02-23T23:57:06.527Z,100839.00
2023-02-23T23:59:34.829Z,100832.44
